Time;durP1;ratioP1;P1;durP2;ratioP2;P2;SDS_P1;SDS_P2;PMS_P1;PMS_P2;Temp;Humidity;BMP_temperature;BMP_pressure;BME280_temperature;BME280_humidity;BME280_pressure;Samples;Min_cycle;Max_cycle;Signal;HPM_P1;HPM_P2
2021/06/21 00:03:45;;;;;;;12.00;4.23;;;;;;;19.23;100.00;98109.88;10254652;29;20214;-84
2021/06/21 00:09:05;;;;;;;12.13;3.33;;;;;;;19.25;100.00;98106.13;10255984;29;20178;-83
2021/06/21 00:14:24;;;;;;;7.83;4.00;;;;;;;19.23;100.00;98083.53;10255968;29;20207;-83
2021/06/21 00:19:44;;;;;;;3.10;2.33;;;;;;;19.26;100.00;98062.28;10254535;29;20179;-84
2021/06/21 00:25:04;;;;;;;10.57;3.37;;;;;;;19.41;100.00;98065.81;10224335;29;20187;-84
2021/06/21 00:30:23;;;;;;;3.57;2.30;;;;;;;19.28;100.00;98054.97;10215221;29;20223;-83
2021/06/21 00:35:43;;;;;;;9.47;3.90;;;;;;;19.29;100.00;98055.75;10215686;29;20196;-83
2021/06/21 00:41:02;;;;;;;15.47;2.73;;;;;;;19.20;100.00;98052.28;10216145;29;20206;-84
2021/06/21 00:46:21;;;;;;;5.77;2.90;;;;;;;19.02;100.00;98072.72;10213920;29;20602;-83
2021/06/21 00:51:40;;;;;;;4.00;2.73;;;;;;;18.91;100.00;98091.25;10228917;29;20186;-83
2021/06/21 00:56:59;;;;;;;8.37;2.93;;;;;;;18.88;100.00;98109.72;10254165;29;20182;-84
2021/06/21 01:02:21;;;;;;;5.83;2.50;;;;;;;19.05;100.00;98112.81;10253335;29;20210;-84
2021/06/21 01:07:40;;;;;;;8.10;3.07;;;;;;;19.04;100.00;98112.03;10253987;29;20561;-83
2021/06/21 01:13:13;;;;;;;6.83;2.80;;;;;;;18.93;100.00;98128.53;10254666;29;20677;-84
2021/06/21 01:18:34;;;;;;;3.40;2.13;;;;;;;18.89;100.00;98127.19;10252334;29;20194;-84
2021/06/21 01:24:06;;;;;;;3.33;2.33;;;;;;;18.93;100.00;98131.34;10221789;29;20211;-83
2021/06/21 01:29:49;;;;;;;8.03;2.93;;;;;;;18.85;100.00;98149.66;10213386;29;20223;-84
2021/06/21 01:35:14;;;;;;;7.00;3.40;;;;;;;18.73;100.00;98152.72;10214549;29;20191;-83
2021/06/21 01:40:46;;;;;;;8.43;2.90;;;;;;;18.59;100.00;98161.78;10214316;29;20203;-82
2021/06/21 01:46:09;;;;;;;4.37;3.13;;;;;;;18.51;100.00;98169.72;10211866;29;20179;-82
2021/06/21 01:51:30;;;;;;;7.87;2.87;;;;;;;18.57;100.00;98159.50;10225187;29;20178;-82
2021/06/21 01:56:49;;;;;;;10.20;2.33;;;;;;;18.60;100.00;98155.72;10251936;29;20179;-83
2021/06/21 02:02:09;;;;;;;5.83;1.93;;;;;;;18.58;100.00;98158.22;10252017;29;20285;-83
2021/06/21 02:07:29;;;;;;;12.03;2.90;;;;;;;18.59;100.00;98161.78;10253293;29;20183;-82
2021/06/21 02:12:51;;;;;;;3.90;2.30;;;;;;;18.62;100.00;98142.09;10258086;28;20182;-84
2021/06/21 02:18:12;;;;;;;6.07;2.87;;;;;;;18.59;100.00;98148.63;10259179;29;20170;-83
2021/06/21 02:23:31;;;;;;;13.93;3.20;;;;;;;18.54;100.00;98149.28;10257213;29;20210;-82
2021/06/21 02:28:59;;;;;;;12.20;2.60;;;;;;;18.52;100.00;98145.44;10259750;29;20230;-82
2021/06/21 02:34:18;;;;;;;2.17;1.70;;;;;;;18.38;100.00;98154.47;10234239;29;20223;-83
2021/06/21 02:39:38;;;;;;;6.23;2.43;;;;;;;18.42;100.00;98166.22;10219957;29;20183;-83
2021/06/21 02:44:57;;;;;;;11.67;2.77;;;;;;;18.36;100.00;98156.97;10220609;29;20207;-83
2021/06/21 02:50:16;;;;;;;8.70;2.73;;;;;;;18.36;100.00;98161.75;10224791;29;20191;-83
2021/06/21 02:55:52;;;;;;;17.37;3.10;;;;;;;18.29;100.00;98160.13;10233840;29;20187;-82
2021/06/21 03:01:15;;;;;;;13.13;2.77;;;;;;;18.13;100.00;98163.28;10217730;29;20215;-82
2021/06/21 03:06:36;;;;;;;5.10;2.67;;;;;;;18.23;100.00;98166.81;10220039;29;20215;-82
2021/06/21 03:11:55;;;;;;;10.53;1.87;;;;;;;18.14;100.00;98178.69;10218560;29;20179;-82
2021/06/21 03:17:15;;;;;;;3.53;1.70;;;;;;;17.99;100.00;98191.75;10217340;29;20195;-82
2021/06/21 03:22:37;;;;;;;6.73;2.43;;;;;;;17.92;100.00;98210.81;10248621;28;20210;-82
2021/06/21 03:27:58;;;;;;;5.50;2.03;;;;;;;17.95;100.00;98188.38;10258941;29;20183;-82
2021/06/21 03:33:17;;;;;;;4.27;1.80;;;;;;;18.04;100.00;98213.41;10178424;29;20184;-81
2021/06/21 03:38:38;;;;;;;7.43;2.13;;;;;;;17.94;100.00;98194.41;10179411;29;20605;-82
2021/06/21 03:43:57;;;;;;;4.40;2.63;;;;;;;17.90;100.00;98191.03;10177555;29;20925;-82
2021/06/21 03:49:16;;;;;;;9.20;1.80;;;;;;;17.76;100.00;98194.47;10173004;29;20192;-82
2021/06/21 03:54:35;;;;;;;2.07;1.50;;;;;;;17.85;100.00;98202.81;10139914;29;20197;-82
2021/06/21 03:59:54;;;;;;;15.13;3.00;;;;;;;17.90;100.00;98207.72;10139505;29;20185;-81
2021/06/21 04:05:14;;;;;;;3.33;2.10;;;;;;;17.86;100.00;98210.69;10138244;29;20628;-81
2021/06/21 04:10:33;;;;;;;5.37;2.93;;;;;;;17.68;100.00;98212.75;10138318;29;20268;-83
2021/06/21 04:15:52;;;;;;;3.47;2.13;;;;;;;17.75;100.00;98234.66;10150101;29;20201;-82
2021/06/21 04:21:11;;;;;;;11.20;2.47;;;;;;;17.75;100.00;98220.75;10156715;29;20211;-82
2021/06/21 04:26:30;;;;;;;7.20;2.30;;;;;;;17.83;100.00;98224.75;10177573;29;20176;-82
2021/06/21 04:31:49;;;;;;;7.33;1.80;;;;;;;17.84;100.00;98226.31;10236796;28;20309;-82
2021/06/21 04:37:09;;;;;;;2.83;1.30;;;;;;;17.89;100.00;98222.88;10255943;29;20182;-82
2021/06/21 04:42:28;;;;;;;3.20;1.77;;;;;;;17.92;100.00;98219.16;10254659;29;20301;-82
2021/06/21 04:47:48;;;;;;;6.10;1.90;;;;;;;18.00;100.00;98217.59;10254863;29;20182;-82
2021/06/21 04:53:10;;;;;;;3.77;2.00;;;;;;;18.05;100.00;98219.72;10221012;29;20171;-82
2021/06/21 04:58:34;;;;;;;10.20;1.40;;;;;;;18.19;100.00;98224.63;10215712;29;20183;-83
2021/06/21 05:03:53;;;;;;;2.50;1.90;;;;;;;18.26;100.00;98222.31;10213867;29;20203;-82
2021/06/21 05:09:12;;;;;;;5.90;1.67;;;;;;;18.42;100.00;98231.03;10214364;29;20179;-83
2021/06/21 05:14:31;;;;;;;17.33;2.87;;;;;;;18.38;100.00;98231.69;10214969;29;20195;-82
2021/06/21 05:19:50;;;;;;;4.07;2.00;;;;;;;18.29;100.00;98246.44;10220100;29;20273;-82
2021/06/21 05:25:09;;;;;;;7.50;2.87;;;;;;;18.25;100.00;98253.41;10221247;29;20191;-83
2021/06/21 05:30:29;;;;;;;10.53;2.50;;;;;;;18.21;100.00;98245.22;10212163;29;20215;-82
2021/06/21 05:35:48;;;;;;;10.27;1.80;;;;;;;18.27;100.00;98248.13;10223751;29;20179;-83
2021/06/21 05:41:07;;;;;;;8.30;2.00;;;;;;;18.50;100.00;98245.41;10214061;29;20580;-84
2021/06/21 05:46:26;;;;;;;3.40;2.10;;;;;;;18.84;100.00;98254.03;10211986;29;20557;-84
2021/06/21 05:51:44;;;;;;;6.33;2.07;;;;;;;19.23;100.00;98253.63;10216103;29;20179;-84
2021/06/21 05:57:05;;;;;;;4.23;1.90;;;;;;;19.42;100.00;98257.03;10215939;29;20638;-85
2021/06/21 06:02:25;;;;;;;6.00;1.53;;;;;;;19.40;100.00;98257.53;10212209;29;20211;-84
2021/06/21 06:07:45;;;;;;;8.57;2.20;;;;;;;19.73;100.00;98243.41;10249010;29;20186;-85
2021/06/21 06:13:04;;;;;;;3.90;1.77;;;;;;;19.81;100.00;98258.53;10251486;29;20677;-83
2021/06/21 06:18:23;;;;;;;7.03;1.57;;;;;;;19.65;100.00;98245.84;10250821;29;20179;-82
2021/06/21 06:23:42;;;;;;;2.90;1.40;;;;;;;19.93;100.00;98254.72;10251514;29;20210;-82
2021/06/21 06:29:01;;;;;;;3.30;1.70;;;;;;;19.99;100.00;98261.19;10250167;29;20226;-84
2021/06/21 06:34:22;;;;;;;4.80;2.33;;;;;;;20.27;100.00;98285.53;10250500;29;20175;-84
2021/06/21 06:39:41;;;;;;;1.67;1.47;;;;;;;20.07;100.00;98293.84;10252774;29;20548;-84
2021/06/21 06:44:59;;;;;;;4.90;1.90;;;;;;;20.03;100.00;98288.41;10244170;29;20195;-84
2021/06/21 06:50:19;;;;;;;4.10;1.27;;;;;;;20.20;100.00;98286.69;10212827;29;20203;-84
2021/06/21 07:01:16;;;;;;;8.03;1.83;;;;;;;20.74;100.00;98279.66;10250000;29;20215;-84
2021/06/21 07:06:35;;;;;;;3.30;1.60;;;;;;;20.77;100.00;98279.50;10258047;29;20198;-84
2021/06/21 07:11:53;;;;;;;8.93;2.10;;;;;;;21.41;100.00;98280.88;10246210;29;20218;-83
2021/06/21 07:17:12;;;;;;;8.73;1.83;;;;;;;21.71;100.00;98285.06;10265580;29;20708;-83
2021/06/21 07:22:31;;;;;;;4.87;1.90;;;;;;;21.24;100.00;98293.91;10231684;29;20253;-82
2021/06/21 07:27:50;;;;;;;2.20;1.50;;;;;;;21.71;100.00;98294.25;10220883;29;20175;-82
2021/06/21 07:33:09;;;;;;;4.90;1.77;;;;;;;21.87;100.00;98299.28;10217652;29;20219;-82
2021/06/21 07:38:29;;;;;;;2.63;1.60;;;;;;;22.27;100.00;98293.53;10217784;29;20560;-81
2021/06/21 07:43:49;;;;;;;3.80;1.90;;;;;;;22.58;100.00;98301.97;10218186;29;20254;-80
2021/06/21 07:49:09;;;;;;;6.00;2.63;;;;;;;22.52;100.00;98298.38;10221583;29;20175;-80
2021/06/21 07:54:28;;;;;;;2.37;1.73;;;;;;;22.53;100.00;98294.31;10257868;29;20653;-78
2021/06/21 07:59:47;;;;;;;3.07;2.00;;;;;;;22.45;100.00;98298.03;10257643;29;20178;-79
2021/06/21 08:05:09;;;;;;;2.00;1.70;;;;;;;22.79;100.00;98292.97;10257193;29;20182;-80
2021/06/21 08:10:28;;;;;;;1.43;1.33;;;;;;;22.45;100.00;98298.03;10256445;28;20178;-79
2021/06/21 08:15:47;;;;;;;2.33;1.60;;;;;;;22.95;100.00;98288.72;10252213;29;20713;-80
2021/06/21 08:21:07;;;;;;;3.53;1.97;;;;;;;23.33;97.88;98284.13;10216114;29;20678;-79
2021/06/21 08:26:26;;;;;;;3.93;2.10;;;;;;;23.74;100.00;98288.16;10215974;29;20187;-80
2021/06/21 08:31:45;;;;;;;2.30;1.30;;;;;;;23.74;100.00;98296.56;10214072;29;20289;-80
2021/06/21 08:37:04;;;;;;;10.60;2.33;;;;;;;24.11;86.91;98302.78;10215423;29;20654;-80
2021/06/21 08:42:23;;;;;;;2.30;2.10;;;;;;;23.75;92.82;98312.13;10214873;29;20207;-79
2021/06/21 08:47:43;;;;;;;2.43;2.23;;;;;;;24.45;86.68;98310.75;10231416;29;20190;-80
2021/06/21 08:53:02;;;;;;;3.73;2.07;;;;;;;24.78;86.46;98304.38;10247609;29;20192;-80
2021/06/21 08:58:22;;;;;;;10.20;2.30;;;;;;;24.43;68.10;98302.06;10215881;29;20179;-80
2021/06/21 09:03:42;;;;;;;1.50;1.40;;;;;;;24.57;69.32;98306.69;10214173;29;20207;-80
2021/06/21 09:09:01;;;;;;;4.17;1.57;;;;;;;25.63;64.37;98295.47;10215555;29;20179;-80
2021/06/21 09:14:26;;;;;;;5.60;1.93;;;;;;;24.97;64.12;98308.97;10214133;29;20199;-80
2021/06/21 09:20:03;;;;;;;2.30;1.53;;;;;;;25.54;65.47;98303.47;10213954;29;20593;-81
2021/06/21 09:25:24;;;;;;;2.50;1.63;;;;;;;24.89;64.80;98316.38;10236905;29;20190;-81
2021/06/21 09:30:51;;;;;;;3.77;1.93;;;;;;;24.48;65.15;98306.94;10251738;29;20230;-80
2021/06/21 09:36:24;;;;;;;3.63;1.67;;;;;;;25.92;63.36;98300.50;10253346;29;20182;-80
2021/06/21 09:41:45;;;;;;;1.90;1.80;;;;;;;26.34;59.12;98297.13;10252749;29;20215;-79
2021/06/21 09:47:18;;;;;;;4.03;1.67;;;;;;;26.76;61.13;98322.75;10252584;29;20669;-79
2021/06/21 09:52:55;;;;;;;6.00;1.33;;;;;;;25.79;60.17;98310.81;10250485;29;20654;-81
2021/06/21 09:58:21;;;;;;;6.90;1.80;;;;;;;26.44;56.79;98318.09;10212814;29;20176;-81
2021/06/21 10:03:44;;;;;;;1.83;1.73;;;;;;;25.47;60.80;98332.91;10211467;29;20203;-81
2021/06/21 10:09:03;;;;;;;1.67;1.57;;;;;;;26.23;59.90;98311.31;10213414;29;20263;-81
2021/06/21 10:14:28;;;;;;;1.60;1.50;;;;;;;26.23;57.41;98316.97;10213940;29;20666;-81
2021/06/21 10:19:47;;;;;;;2.23;2.03;;;;;;;25.29;57.60;98327.84;10212096;29;20184;-81
2021/06/21 10:25:08;;;;;;;1.70;1.60;;;;;;;25.72;56.98;98320.53;10218582;29;20199;-80
2021/06/21 10:30:29;;;;;;;2.10;1.90;;;;;;;25.05;60.40;98319.16;10227201;28;21055;-81
2021/06/21 10:35:48;;;;;;;2.37;2.17;;;;;;;26.56;57.22;98306.22;10230108;29;20183;-82
2021/06/21 10:41:09;;;;;;;2.13;1.93;;;;;;;26.62;53.92;98306.19;10221278;29;20238;-81
2021/06/21 10:46:33;;;;;;;4.60;1.97;;;;;;;27.94;51.90;98298.59;10219894;29;20187;-81
2021/06/21 10:51:52;;;;;;;2.00;1.43;;;;;;;27.81;51.62;98314.72;10221461;29;20262;-80
2021/06/21 10:57:19;;;;;;;2.43;1.33;;;;;;;27.25;50.71;98321.53;10223840;29;20176;-82
2021/06/21 11:02:38;;;;;;;1.83;1.73;;;;;;;26.99;53.37;98329.72;10218236;29;20293;-82
2021/06/21 11:08:19;;;;;;;1.83;1.60;;;;;;;26.65;54.36;98323.56;10219424;29;20654;-79
2021/06/21 11:13:41;;;;;;;2.50;1.97;;;;;;;27.85;53.24;98329.31;10219929;29;20211;-79
2021/06/21 11:19:10;;;;;;;4.40;2.07;;;;;;;28.07;52.59;98326.94;10221334;29;20188;-79
2021/06/21 11:24:35;;;;;;;1.70;1.60;;;;;;;28.28;49.60;98323.06;10258390;29;20210;-80
2021/06/21 11:29:57;;;;;;;1.87;1.73;;;;;;;27.84;49.73;98322.88;10258514;29;20586;-79
2021/06/21 11:35:19;;;;;;;2.60;1.70;;;;;;;27.68;49.69;98321.03;10257672;29;20694;-79
2021/06/21 11:40:38;;;;;;;6.57;1.97;;;;;;;28.71;50.23;98318.03;10257287;29;20199;-80
2021/06/21 11:46:00;;;;;;;4.17;1.80;;;;;;;29.03;47.02;98315.19;10255004;28;20583;-82
2021/06/21 11:51:19;;;;;;;8.93;2.30;;;;;;;28.78;47.22;98317.38;10235574;29;20221;-82
2021/06/21 11:56:38;;;;;;;2.50;2.30;;;;;;;27.79;49.42;98322.94;10218349;29;20199;-83
2021/06/21 12:02:03;;;;;;;5.20;1.80;;;;;;;28.78;47.52;98331.53;10216659;29;20207;-82
2021/06/21 12:07:42;;;;;;;9.03;2.07;;;;;;;28.67;45.42;98316.81;10217873;29;20627;-81
2021/06/21 12:13:01;;;;;;;1.60;1.40;;;;;;;27.81;48.78;98321.16;10216668;29;20196;-79
2021/06/21 12:18:27;;;;;;;2.07;1.80;;;;;;;28.52;47.90;98311.63;10216596;29;20254;-82
2021/06/21 12:23:46;;;;;;;1.30;1.20;;;;;;;29.10;44.97;98309.63;10255493;29;20685;-81
2021/06/21 12:29:25;;;;;;;3.17;2.30;;;;;;;28.65;46.84;98313.75;10255409;29;20219;-82
2021/06/21 12:34:51;;;;;;;2.47;1.70;;;;;;;28.38;46.84;98318.53;10255274;29;20190;-82
2021/06/21 12:40:17;;;;;;;9.47;2.27;;;;;;;28.57;45.71;98319.28;10255226;29;20593;-82
2021/06/21 12:45:37;;;;;;;2.03;1.80;;;;;;;30.47;45.11;98301.16;10253365;29;20207;-83
2021/06/21 12:50:57;;;;;;;1.70;1.60;;;;;;;30.43;41.70;98314.88;10234453;29;20195;-82
2021/06/21 12:56:29;;;;;;;3.07;1.93;;;;;;;29.59;45.92;98307.94;10241402;29;20190;-82
2021/06/21 13:01:47;;;;;;;2.17;1.30;;;;;;;30.20;43.12;98285.50;10254113;29;20242;-82
2021/06/21 13:07:10;;;;;;;2.23;1.50;;;;;;;29.44;45.39;98307.75;10255373;29;20210;-83
2021/06/21 13:12:31;;;;;;;1.40;1.30;;;;;;;27.81;48.59;98297.75;10256168;29;20603;-82
2021/06/21 13:17:53;;;;;;;3.00;1.13;;;;;;;28.90;47.49;98296.13;10254882;29;20174;-84
2021/06/21 13:23:12;;;;;;;2.03;1.50;;;;;;;28.96;46.83;98296.78;10253919;29;20289;-82
2021/06/21 13:28:33;;;;;;;4.90;1.47;;;;;;;28.82;44.62;98292.41;10213923;29;20223;-82
2021/06/21 13:33:52;;;;;;;1.70;1.27;;;;;;;29.03;47.85;98298.97;10213787;29;20638;-82
2021/06/21 13:39:16;;;;;;;1.53;1.43;;;;;;;30.69;43.01;98281.50;10213815;29;20631;-82
2021/06/21 13:44:35;;;;;;;1.97;1.20;;;;;;;30.08;43.13;98289.91;10213887;29;20211;-79
2021/06/21 13:50:00;;;;;;;1.67;1.57;;;;;;;29.41;41.86;98297.47;10211879;29;20183;-80
2021/06/21 13:55:20;;;;;;;3.00;1.47;;;;;;;29.30;43.19;98286.34;10213261;29;20195;-81
2021/06/21 14:00:49;;;;;;;1.50;1.40;;;;;;;29.23;45.17;98289.84;10212642;29;20207;-81
2021/06/21 14:06:08;;;;;;;1.43;1.33;;;;;;;30.71;45.30;98273.16;10198364;29;20199;-81
2021/06/21 14:11:27;;;;;;;2.57;1.50;;;;;;;31.90;40.66;98279.72;10213795;29;20203;-81
2021/06/21 14:16:47;;;;;;;1.50;1.40;;;;;;;29.86;42.89;98284.69;10211394;29;20191;-82
2021/06/21 14:22:09;;;;;;;1.60;1.50;;;;;;;29.70;44.28;98288.63;10212487;29;20597;-82
2021/06/21 14:27:28;;;;;;;1.63;1.53;;;;;;;30.99;41.88;98273.22;10250716;29;20653;-82
2021/06/21 14:32:47;;;;;;;1.60;1.50;;;;;;;29.77;43.36;98293.63;10251194;29;20625;-82
2021/06/21 14:38:06;;;;;;;6.33;1.40;;;;;;;30.07;42.68;98289.13;10252602;29;20183;-83
2021/06/21 14:43:26;;;;;;;4.63;1.60;;;;;;;28.98;44.73;98290.56;10252334;29;20566;-84
2021/06/21 14:48:45;;;;;;;1.90;1.20;;;;;;;29.35;44.76;98286.25;10250423;29;20179;-82
2021/06/21 14:54:05;;;;;;;3.53;1.47;;;;;;;30.67;42.14;98269.16;10251006;29;20183;-83
2021/06/21 14:59:24;;;;;;;1.67;1.57;;;;;;;29.74;42.49;98269.22;10252492;29;20218;-83
2021/06/21 15:04:43;;;;;;;1.60;1.50;;;;;;;30.29;41.54;98268.75;10251896;29;20214;-79
2021/06/21 15:10:06;;;;;;;1.80;1.70;;;;;;;30.21;41.32;98270.00;10253489;29;20203;-81
2021/06/21 15:15:28;;;;;;;1.50;1.30;;;;;;;29.81;43.89;98264.94;10252889;29;20186;-82
2021/06/21 15:20:47;;;;;;;1.67;1.43;;;;;;;29.45;44.02;98267.50;10259705;28;20596;-83
2021/06/21 15:26:06;;;;;;;1.70;1.60;;;;;;;29.66;43.82;98265.53;10229938;29;20187;-83
2021/06/21 15:31:25;;;;;;;3.87;1.60;;;;;;;30.32;42.33;98264.06;10224593;29;20210;-83
2021/06/21 15:36:45;;;;;;;1.40;1.30;;;;;;;29.94;42.66;98271.38;10243894;29;20199;-83
2021/06/21 15:42:06;;;;;;;12.33;2.17;;;;;;;30.15;43.08;98261.59;10218562;29;20210;-83
2021/06/21 15:47:25;;;;;;;1.80;1.70;;;;;;;30.99;41.37;98248.41;10217232;29;20191;-83
2021/06/21 15:52:46;;;;;;;2.17;1.37;;;;;;;30.57;43.57;98251.84;10217398;29;20187;-82
2021/06/21 15:58:10;;;;;;;2.00;1.90;;;;;;;30.95;42.51;98255.75;10218386;29;20172;-84
2021/06/21 16:03:30;;;;;;;2.00;1.90;;;;;;;30.30;42.07;98255.34;10215370;29;20575;-83
2021/06/21 16:08:49;;;;;;;1.90;1.80;;;;;;;31.02;43.42;98255.06;10216866;29;20203;-84
2021/06/21 16:14:08;;;;;;;2.70;1.97;;;;;;;30.08;43.92;98250.94;10217698;29;20267;-83
2021/06/21 16:19:28;;;;;;;2.23;1.90;;;;;;;30.24;46.34;98254.72;10215475;29;20183;-83
2021/06/21 16:24:47;;;;;;;2.93;2.00;;;;;;;29.68;45.58;98262.13;10228725;29;20293;-83
2021/06/21 16:30:09;;;;;;;2.17;2.07;;;;;;;30.24;46.07;98249.03;10254237;28;20235;-82
2021/06/21 16:35:28;;;;;;;4.73;2.17;;;;;;;30.28;45.14;98243.78;10256715;29;20645;-82
2021/06/21 16:40:47;;;;;;;2.37;2.00;;;;;;;30.78;43.69;98241.22;10255101;29;20611;-85
2021/06/21 16:46:06;;;;;;;2.40;2.20;;;;;;;30.35;43.32;98241.03;10254038;29;20187;-82
2021/06/21 16:51:25;;;;;;;4.63;2.20;;;;;;;30.87;41.47;98249.25;10255922;29;20183;-83
2021/06/21 16:56:45;;;;;;;3.37;2.17;;;;;;;30.43;42.86;98252.44;10245898;29;20191;-82
2021/06/21 17:02:04;;;;;;;3.10;1.93;;;;;;;29.47;44.95;98264.88;10213720;29;20211;-85
2021/06/21 17:07:24;;;;;;;1.93;1.73;;;;;;;30.15;43.75;98267.28;10214841;29;20195;-82
2021/06/21 17:12:44;;;;;;;1.63;1.53;;;;;;;30.00;43.83;98250.09;10202220;29;20269;-81
2021/06/21 17:18:03;;;;;;;2.13;2.03;;;;;;;29.64;44.10;98253.22;10221792;29;20183;-82
2021/06/21 17:23:23;;;;;;;3.97;2.97;;;;;;;30.71;42.23;98258.22;10214580;29;20211;-80
2021/06/21 17:28:42;;;;;;;1.50;1.40;;;;;;;30.79;40.66;98257.72;10213734;29;20227;-80
2021/06/21 17:34:01;;;;;;;2.13;2.03;;;;;;;30.49;41.06;98251.00;10212631;29;20172;-83
2021/06/21 17:39:20;;;;;;;2.23;2.07;;;;;;;30.30;41.51;98258.94;10213577;29;20266;-81
2021/06/21 17:44:39;;;;;;;2.87;1.97;;;;;;;30.04;43.33;98278.91;10219728;29;20241;-81
2021/06/21 17:49:58;;;;;;;1.90;1.63;;;;;;;28.73;45.54;98280.66;10252204;29;20178;-82
2021/06/21 17:55:18;;;;;;;1.90;1.80;;;;;;;28.37;47.50;98288.72;10254224;29;20178;-81
2021/06/21 18:00:43;;;;;;;2.07;1.97;;;;;;;27.48;48.16;98295.31;10252989;29;20183;-82
2021/06/21 18:06:02;;;;;;;2.00;1.90;;;;;;;27.27;48.77;98288.63;10253009;29;20175;-81
2021/06/21 18:11:21;;;;;;;3.33;1.87;;;;;;;27.04;50.23;98295.81;10246195;29;20678;-81
2021/06/21 18:16:39;;;;;;;1.83;1.50;;;;;;;26.89;50.81;98303.88;10212558;29;20183;-80
2021/06/21 18:21:58;;;;;;;1.73;1.63;;;;;;;26.71;52.84;98296.09;10212756;29;20570;-82
2021/06/21 18:27:17;;;;;;;1.70;1.60;;;;;;;26.37;53.08;98298.91;10212822;29;20176;-81
2021/06/21 18:32:37;;;;;;;2.47;1.77;;;;;;;26.11;54.36;98284.47;10212119;29;20258;-80
2021/06/21 18:37:57;;;;;;;1.67;1.57;;;;;;;25.51;57.25;98277.09;10212737;29;20183;-80
2021/06/21 18:43:17;;;;;;;1.90;1.80;;;;;;;25.22;57.79;98271.31;10233887;29;20716;-81
2021/06/21 18:48:36;;;;;;;1.93;1.83;;;;;;;24.99;58.59;98275.44;10252335;29;20191;-80
2021/06/21 18:53:55;;;;;;;2.30;2.20;;;;;;;25.10;57.54;98286.69;10256444;28;20638;-80
2021/06/21 18:59:14;;;;;;;11.43;3.00;;;;;;;24.95;59.45;98277.75;10259913;29;20179;-81
2021/06/21 19:04:33;;;;;;;2.83;2.60;;;;;;;24.77;59.21;98266.28;10257876;29;20214;-81
2021/06/21 19:09:52;;;;;;;3.43;2.27;;;;;;;24.53;60.52;98260.41;10258908;29;20203;-80
2021/06/21 19:15:14;;;;;;;2.10;2.00;;;;;;;24.43;60.98;98267.56;10223542;29;20187;-80
2021/06/21 19:20:34;;;;;;;2.07;1.90;;;;;;;24.37;61.48;98275.22;10220185;29;20184;-80
2021/06/21 19:25:53;;;;;;;1.80;1.70;;;;;;;24.29;62.44;98282.63;10218917;29;20606;-81
2021/06/21 19:31:12;;;;;;;2.80;2.47;;;;;;;24.08;64.24;98295.34;10217110;29;20227;-81
2021/06/21 19:36:34;;;;;;;1.80;1.70;;;;;;;23.76;66.60;98285.59;10219211;29;20184;-81
2021/06/21 19:41:53;;;;;;;2.20;2.10;;;;;;;23.34;69.56;98263.19;10226733;29;20301;-84
2021/06/21 19:47:12;;;;;;;2.30;2.10;;;;;;;23.42;69.56;98258.63;10256221;29;20186;-82
2021/06/21 19:52:31;;;;;;;2.60;2.40;;;;;;;23.18;68.89;98265.19;10252388;29;20187;-80
2021/06/21 19:57:53;;;;;;;2.60;2.40;;;;;;;23.08;68.01;98281.44;10218275;29;20572;-83
2021/06/21 20:03:12;;;;;;;2.40;2.20;;;;;;;23.01;67.77;98318.34;10214483;29;20751;-80
2021/06/21 20:08:31;;;;;;;2.50;2.40;;;;;;;23.05;67.00;98330.16;10216374;29;20239;-80
2021/06/21 20:13:51;;;;;;;2.63;2.37;;;;;;;23.05;68.04;98344.19;10217677;29;20183;-80
2021/06/21 20:19:19;;;;;;;2.20;2.10;;;;;;;23.08;69.66;98345.22;10215439;29;20183;-81
2021/06/21 20:25:22;;;;;;;4.60;2.67;;;;;;;22.52;71.59;98343.97;10228413;29;20579;-81
2021/06/21 20:30:43;;;;;;;2.80;2.20;;;;;;;22.14;75.55;98354.78;10199248;29;20223;-81
2021/06/21 20:36:03;;;;;;;2.83;2.63;;;;;;;22.08;76.41;98370.03;10222332;29;20191;-81
2021/06/21 20:41:22;;;;;;;3.73;2.73;;;;;;;22.05;77.15;98377.34;10228148;29;20210;-81
2021/06/21 20:46:41;;;;;;;2.43;2.20;;;;;;;21.92;79.08;98382.56;10253288;29;20187;-81
2021/06/21 20:52:01;;;;;;;3.03;2.60;;;;;;;21.82;81.11;98388.81;10254931;29;20186;-83
2021/06/21 20:57:20;;;;;;;3.00;2.80;;;;;;;21.73;81.70;98400.91;10254921;29;20261;-83
2021/06/21 21:02:38;;;;;;;3.07;2.60;;;;;;;21.89;81.03;98425.53;10239823;29;20203;-81
2021/06/21 21:07:57;;;;;;;4.37;2.57;;;;;;;21.93;80.21;98448.53;10215463;29;20191;-83
2021/06/21 21:13:18;;;;;;;2.80;2.60;;;;;;;21.72;81.68;98469.38;10218103;29;20191;-82
2021/06/21 21:18:37;;;;;;;2.87;2.67;;;;;;;21.54;84.00;98462.47;10252448;28;20178;-83
2021/06/21 21:23:56;;;;;;;3.13;2.93;;;;;;;21.58;85.96;98469.44;10254404;29;20564;-82
2021/06/21 21:29:15;;;;;;;2.80;2.60;;;;;;;21.69;85.77;98475.16;10253293;29;20218;-82
2021/06/21 21:34:35;;;;;;;2.80;2.60;;;;;;;21.72;85.56;98477.00;10252050;29;20192;-80
2021/06/21 21:39:54;;;;;;;2.97;2.77;;;;;;;21.63;86.71;98484.75;10253179;29;20175;-83
2021/06/21 21:45:14;;;;;;;3.10;2.80;;;;;;;21.60;88.81;98494.13;10232459;29;20211;-83
2021/06/21 21:50:34;;;;;;;3.10;2.70;;;;;;;21.53;89.79;98492.47;10213314;29;20179;-82
2021/06/21 21:55:53;;;;;;;4.53;2.90;;;;;;;21.47;90.15;98490.88;10213147;29;20183;-81
2021/06/21 22:01:12;;;;;;;2.90;2.70;;;;;;;21.50;92.50;98504.66;10212925;29;20199;-83
2021/06/21 22:06:31;;;;;;;2.50;2.40;;;;;;;21.65;92.42;98510.25;10212782;29;20203;-83
2021/06/21 22:11:50;;;;;;;9.23;3.40;;;;;;;21.60;94.36;98510.91;10212987;29;20633;-83
2021/06/21 22:17:09;;;;;;;2.77;2.57;;;;;;;21.39;96.22;98504.47;10245396;29;20174;-83
2021/06/21 22:22:28;;;;;;;3.00;2.73;;;;;;;21.32;100.00;98504.13;10252747;29;20253;-81
2021/06/21 22:27:47;;;;;;;3.43;3.00;;;;;;;21.36;100.00;98491.47;10256359;28;20556;-82
2021/06/21 22:33:07;;;;;;;3.47;3.00;;;;;;;21.12;100.00;98498.44;10260099;29;20226;-82
2021/06/21 22:38:26;;;;;;;4.27;3.03;;;;;;;21.07;100.00;98499.13;10260923;29;20186;-80
2021/06/21 22:43:45;;;;;;;3.00;2.80;;;;;;;21.00;100.00;98489.09;10252225;29;20219;-81
2021/06/21 22:49:04;;;;;;;2.67;2.47;;;;;;;20.80;100.00;98496.59;10219819;29;20183;-81
2021/06/21 22:54:23;;;;;;;10.40;3.60;;;;;;;20.70;100.00;98485.97;10220605;29;20175;-80
2021/06/21 22:59:42;;;;;;;4.00;3.60;;;;;;;20.65;100.00;98469.84;10220613;29;20225;-81
2021/06/21 23:05:01;;;;;;;3.53;3.23;;;;;;;20.55;100.00;98451.66;10217425;29;20693;-81
2021/06/21 23:10:22;;;;;;;4.30;4.00;;;;;;;20.50;100.00;98450.28;10219147;29;20179;-80
2021/06/21 23:15:42;;;;;;;9.93;4.40;;;;;;;20.43;100.00;98439.50;10241415;29;20222;-81
2021/06/21 23:21:21;;;;;;;4.30;4.00;;;;;;;20.58;100.00;98456.25;10258296;29;20199;-80
2021/06/21 23:26:40;;;;;;;4.43;4.03;;;;;;;20.52;100.00;98477.75;10259101;29;20182;-80
2021/06/21 23:31:59;;;;;;;4.10;3.77;;;;;;;20.39;100.00;98502.41;10256353;29;20226;-80
2021/06/21 23:37:18;;;;;;;4.60;4.23;;;;;;;20.36;100.00;98518.06;10258275;28;20171;-80
2021/06/21 23:42:38;;;;;;;4.70;4.30;;;;;;;20.43;100.00;98523.31;10257879;29;20206;-80
2021/06/21 23:47:58;;;;;;;5.57;5.17;;;;;;;20.13;100.00;98518.88;10238370;29;20186;-80
2021/06/21 23:53:17;;;;;;;5.63;4.80;;;;;;;20.04;100.00;98523.75;10258127;29;20171;-80
2021/06/21 23:58:38;;;;;;;5.53;4.93;;;;;;;19.90;100.00;98534.81;10258079;29;20626;-80
